Bogota, Colombia
Current Conditions -  °F | °C
As of 1:00 PM on Saturday 25 Oct 2014 (Local Time) from SKBO Reporting Station
Rain Showers Rain Showers  
Wind Chill: 64°   Ceiling: Unl
Heat Index: 64°   Visibility: 6mi
Dew Point: 54°   Wind: 12mph
Humidity: 68%   Direction: 320°NW
Pressure: 30.29"   Gusts: NA
Location:  4.63°N, 74.09°W
Report Text: SKBO 251800Z 32010KT 9999 VCSH SCT020 SCT090 18/12 A3029
Loading
Personal Weather Stations






























Interactive Weather Map New forecast layout! Learn more

10-Day Weather Forecast

Advertisements
Track Severe Weather on mobile